createdAt,value
2022-07-29T00:00:05.109Z,5.1
2022-07-29T00:05:05.103Z,5.1
2022-07-29T00:10:05.102Z,5.1
2022-07-29T00:15:05.194Z,5.1
2022-07-29T00:20:05.103Z,5.4
2022-07-29T00:25:05.124Z,5.4
2022-07-29T00:30:05.167Z,5
2022-07-29T00:35:05.102Z,5
2022-07-29T00:40:05.096Z,5
2022-07-29T00:45:05.101Z,5
2022-07-29T00:50:05.311Z,4.9
2022-07-29T00:55:08.586Z,4.9
2022-07-29T01:00:05.103Z,4.2
2022-07-29T01:05:05.093Z,4.2
2022-07-29T01:10:05.110Z,4.3
2022-07-29T01:15:05.101Z,4.3
2022-07-29T01:20:05.098Z,4.5
2022-07-29T01:25:05.087Z,4.5
2022-07-29T01:30:05.134Z,4.4
2022-07-29T01:35:05.093Z,4.4
2022-07-29T01:40:05.089Z,4.4
2022-07-29T01:45:05.091Z,4.4
2022-07-29T01:50:05.081Z,4.9
2022-07-29T01:55:05.089Z,4.9
2022-07-29T02:00:05.090Z,3.9
2022-07-29T02:05:05.149Z,3.9
2022-07-29T02:10:05.089Z,4.3
2022-07-29T02:15:05.098Z,4.3
2022-07-29T02:20:05.084Z,3.8
2022-07-29T02:25:05.099Z,3.8
2022-07-29T02:30:05.084Z,4
2022-07-29T02:35:05.102Z,4
2022-07-29T02:40:05.100Z,4.1
2022-07-29T02:45:05.095Z,4.1
2022-07-29T02:50:05.119Z,4.1
2022-07-29T02:55:05.101Z,4.1
2022-07-29T03:00:05.097Z,4.4
2022-07-29T03:05:05.159Z,4.4
2022-07-29T03:10:05.105Z,3.9
2022-07-29T03:15:05.115Z,3.9
2022-07-29T03:20:05.099Z,3.8
2022-07-29T03:25:05.097Z,3.8
2022-07-29T03:30:05.097Z,4.2
2022-07-29T03:35:05.115Z,4.2
2022-07-29T03:40:05.094Z,4
2022-07-29T03:45:05.099Z,4
2022-07-29T03:50:05.098Z,3.7
2022-07-29T03:55:05.110Z,3.7
2022-07-29T04:00:05.097Z,3.9
2022-07-29T04:05:05.092Z,3.9
2022-07-29T04:10:05.099Z,3.8
2022-07-29T04:15:05.103Z,3.8
2022-07-29T04:20:05.102Z,3.8
2022-07-29T04:25:05.104Z,3.8
2022-07-29T04:30:05.102Z,3.6
2022-07-29T04:35:05.103Z,3.6
2022-07-29T04:40:05.098Z,3.5
2022-07-29T04:45:05.096Z,3.5
2022-07-29T04:50:05.101Z,4
2022-07-29T04:55:05.093Z,4
2022-07-29T05:00:05.099Z,3.4
2022-07-29T05:05:05.093Z,3.4
2022-07-29T05:10:05.100Z,3.6
2022-07-29T05:15:05.102Z,3.6
2022-07-29T05:20:05.092Z,3.2
2022-07-29T05:25:08.945Z,3.2
2022-07-29T05:30:05.096Z,3.7
2022-07-29T05:35:05.096Z,3.7
2022-07-29T05:40:05.095Z,4
2022-07-29T05:45:05.112Z,4
2022-07-29T05:50:05.093Z,4
2022-07-29T05:55:05.108Z,4
2022-07-29T06:00:05.101Z,3.8
2022-07-29T06:05:05.112Z,3.8
2022-07-29T06:10:05.094Z,4
2022-07-29T06:15:05.099Z,4
2022-07-29T06:20:05.093Z,4.2
2022-07-29T06:25:05.105Z,4.2
2022-07-29T06:30:05.376Z,4.2
2022-07-29T06:35:24.753Z,4.2
2022-07-29T06:40:05.101Z,4.2
2022-07-29T06:45:09.244Z,4.2
2022-07-29T06:50:05.084Z,4.1
2022-07-29T06:55:05.099Z,4.1
2022-07-29T07:00:05.093Z,4.1
2022-07-29T07:05:05.105Z,4.1
2022-07-29T07:10:05.099Z,3.8
2022-07-29T07:15:05.102Z,3.8
2022-07-29T07:20:05.098Z,3.8
2022-07-29T07:25:05.104Z,3.8
2022-07-29T07:30:05.086Z,3.8
2022-07-29T07:35:05.097Z,3.8
2022-07-29T07:40:05.095Z,3.8
2022-07-29T07:45:13.338Z,3.8
2022-07-29T07:50:05.110Z,3.8
2022-07-29T07:55:05.105Z,3.8
2022-07-29T08:00:05.131Z,3.9
2022-07-29T08:05:05.111Z,3.9
2022-07-29T08:10:05.098Z,4
2022-07-29T08:15:05.110Z,4
2022-07-29T08:20:05.104Z,4.2
2022-07-29T08:25:05.103Z,4.2
2022-07-29T08:30:05.095Z,4
2022-07-29T08:35:05.096Z,4
2022-07-29T08:40:05.104Z,4
2022-07-29T08:45:05.101Z,4
2022-07-29T08:50:05.101Z,4.4
2022-07-29T08:55:05.103Z,4.4
2022-07-29T09:00:08.047Z,4.4
2022-07-29T09:05:05.112Z,4.4
2022-07-29T09:10:05.091Z,3.9
2022-07-29T09:15:05.109Z,3.9
2022-07-29T09:20:05.098Z,4.1
2022-07-29T09:25:05.102Z,4.1
2022-07-29T09:30:05.133Z,4.3
2022-07-29T09:35:05.092Z,4.3
2022-07-29T09:40:07.914Z,4.4
2022-07-29T09:45:05.095Z,4.4
2022-07-29T09:50:05.112Z,4.2
2022-07-29T09:55:05.096Z,4.2
2022-07-29T10:00:05.096Z,4.8
2022-07-29T10:05:05.108Z,4.8
2022-07-29T10:10:05.115Z,4.4
2022-07-29T10:15:05.109Z,4.4
2022-07-29T10:20:05.098Z,3.9
2022-07-29T10:25:05.115Z,3.9
2022-07-29T10:30:05.119Z,4.5
2022-07-29T10:35:05.112Z,4.5
2022-07-29T10:40:05.114Z,4.7
2022-07-29T10:45:05.124Z,4.7
2022-07-29T10:50:05.115Z,4.6
2022-07-29T10:55:05.128Z,4.6
2022-07-29T11:00:05.122Z,4.8
2022-07-29T11:05:05.100Z,4.8
2022-07-29T11:10:05.108Z,5.2
2022-07-29T11:15:05.128Z,5.2
2022-07-29T11:20:05.100Z,4.7
2022-07-29T11:25:05.103Z,4.7
2022-07-29T11:30:05.098Z,4.9
2022-07-29T11:35:16.985Z,4.9
2022-07-29T11:40:05.102Z,5
2022-07-29T11:45:08.990Z,5
2022-07-29T11:50:05.089Z,4.9
2022-07-29T11:55:09.752Z,4.9
2022-07-29T12:00:09.648Z,5.1
2022-07-29T12:05:10.922Z,5.1
2022-07-29T12:10:05.120Z,5.4
2022-07-29T12:15:05.102Z,5.4
2022-07-29T12:20:05.102Z,5
2022-07-29T12:25:30.218Z,5
2022-07-29T12:30:05.116Z,4.7
2022-07-29T12:35:05.099Z,4.7
2022-07-29T12:40:05.138Z,4.9
2022-07-29T12:45:05.101Z,4.9
2022-07-29T12:50:05.109Z,5.1
2022-07-29T12:55:05.114Z,5.1
2022-07-29T13:00:05.092Z,5.1
2022-07-29T13:05:05.101Z,5.1
2022-07-29T13:10:05.107Z,4.6
2022-07-29T13:15:05.112Z,4.6
2022-07-29T13:20:05.106Z,4.6
2022-07-29T13:25:05.104Z,4.6
2022-07-29T13:30:05.096Z,4.6
2022-07-29T13:35:05.686Z,4.6
2022-07-29T13:40:05.104Z,4.8
2022-07-29T13:45:05.106Z,4.8
2022-07-29T13:50:05.172Z,4.8
2022-07-29T13:55:05.092Z,4.8
2022-07-29T14:00:05.138Z,4.9
2022-07-29T14:05:08.477Z,4.9
2022-07-29T14:10:05.217Z,6.9
2022-07-29T14:15:05.095Z,6.9
2022-07-29T14:20:05.096Z,6
2022-07-29T14:25:06.854Z,6
2022-07-29T14:30:05.135Z,6.3
2022-07-29T14:35:05.106Z,6.3
2022-07-29T14:40:05.085Z,6.3
2022-07-29T14:45:05.098Z,6.3
2022-07-29T14:50:05.094Z,5.8
2022-07-29T14:55:05.103Z,5.8
2022-07-29T15:00:05.110Z,5.8
2022-07-29T15:05:05.117Z,5.8
2022-07-29T15:10:05.105Z,5.6
2022-07-29T15:15:05.101Z,5.6
2022-07-29T15:20:05.118Z,5.7
2022-07-29T15:25:05.113Z,5.7
2022-07-29T15:30:05.114Z,4.7
2022-07-29T15:35:05.096Z,4.7
2022-07-29T15:40:05.103Z,4.5
2022-07-29T15:45:05.103Z,4.5
2022-07-29T15:50:05.096Z,5
2022-07-29T15:55:05.108Z,5
2022-07-29T16:00:05.109Z,4.9
2022-07-29T16:05:05.105Z,4.9
2022-07-29T16:10:05.111Z,4.6
2022-07-29T16:15:09.648Z,4.6
2022-07-29T16:20:05.095Z,4.3
2022-07-29T16:25:05.103Z,4.3
2022-07-29T16:30:05.119Z,5.2
2022-07-29T16:35:05.116Z,5.2
2022-07-29T16:40:05.100Z,4.8
2022-07-29T16:45:05.115Z,4.8
2022-07-29T16:50:05.118Z,4.2
2022-07-29T16:55:05.199Z,4.2
2022-07-29T17:00:05.120Z,4
2022-07-29T17:05:05.112Z,4
2022-07-29T17:10:05.202Z,4.5
2022-07-29T17:15:05.103Z,4.5
2022-07-29T17:20:05.094Z,5.5
2022-07-29T17:25:05.127Z,5.5
2022-07-29T17:30:05.097Z,5.2
2022-07-29T17:35:05.103Z,5.2
2022-07-29T17:40:05.094Z,5.4
2022-07-29T17:45:05.102Z,5.4
2022-07-29T17:50:05.087Z,4.7
2022-07-29T17:55:05.119Z,4.7
2022-07-29T18:00:05.101Z,4.3
2022-07-29T18:05:05.113Z,4.3
2022-07-29T18:10:05.091Z,4.6
2022-07-29T18:15:05.097Z,4.6
2022-07-29T18:20:05.094Z,5.5
2022-07-29T18:25:05.125Z,5.5
2022-07-29T18:30:05.150Z,5.5
2022-07-29T18:35:05.130Z,5.5
2022-07-29T18:40:05.110Z,5.5
2022-07-29T18:45:07.294Z,5.5
2022-07-29T18:50:05.117Z,5.9
2022-07-29T18:55:05.109Z,5.9
2022-07-29T19:00:05.109Z,6
2022-07-29T19:05:05.103Z,6
2022-07-29T19:10:05.105Z,6.1
2022-07-29T19:15:05.100Z,6.1
2022-07-29T19:20:05.098Z,6.4
2022-07-29T19:25:05.095Z,6.4
2022-07-29T19:30:05.100Z,5.8
2022-07-29T19:35:05.099Z,5.8
2022-07-29T19:40:05.085Z,6.4
2022-07-29T19:45:05.106Z,6.4
2022-07-29T19:50:05.083Z,6.2
2022-07-29T19:55:07.470Z,6.2
2022-07-29T20:00:05.094Z,6.8
2022-07-29T20:05:05.090Z,6.8
2022-07-29T20:10:05.111Z,6.9
2022-07-29T20:15:05.090Z,6.9
2022-07-29T20:20:05.099Z,7.3
2022-07-29T20:25:05.103Z,7.3
2022-07-29T20:30:05.096Z,7.3
2022-07-29T20:35:05.098Z,7.3
2022-07-29T20:40:05.088Z,9.7
2022-07-29T20:45:08.532Z,9.7
2022-07-29T20:50:05.094Z,9.7
2022-07-29T20:55:05.112Z,9.7
2022-07-29T21:00:05.094Z,11.9
2022-07-29T21:05:05.103Z,11.9
2022-07-29T21:10:05.094Z,11.7
2022-07-29T21:15:05.106Z,11.7
2022-07-29T21:20:05.107Z,9.9
2022-07-29T21:25:05.103Z,9.9
2022-07-29T21:30:05.106Z,9.6
2022-07-29T21:35:08.457Z,9.6
2022-07-29T21:40:05.093Z,9.2
2022-07-29T21:45:05.099Z,9.2
2022-07-29T21:50:05.095Z,8.9
2022-07-29T21:55:05.113Z,8.9
2022-07-29T22:00:05.103Z,10.1
2022-07-29T22:05:05.109Z,10.1
2022-07-29T22:10:05.102Z,8.8
2022-07-29T22:15:05.109Z,8.8
2022-07-29T22:20:05.098Z,9.4
2022-07-29T22:25:05.117Z,9.4
2022-07-29T22:30:05.108Z,9
2022-07-29T22:35:05.106Z,9
2022-07-29T22:40:05.095Z,9.3
2022-07-29T22:45:05.123Z,9.3
2022-07-29T22:50:05.093Z,9
2022-07-29T22:55:05.121Z,9
2022-07-29T23:00:05.091Z,9.8
2022-07-29T23:05:05.100Z,9.8
2022-07-29T23:10:05.094Z,9.7
2022-07-29T23:15:05.096Z,9.7
2022-07-29T23:20:05.100Z,8.3
2022-07-29T23:25:05.108Z,8.3
2022-07-29T23:30:05.090Z,8.3
2022-07-29T23:35:05.096Z,8.3
2022-07-29T23:40:05.098Z,8.5
2022-07-29T23:45:05.105Z,8.5
2022-07-29T23:50:05.099Z,8
2022-07-29T23:55:35.928Z,8
